Santo, Texas
Current Conditions -  °F | °C
As of 9:53 AM on Wednesday 22 Oct 2014 (Local Time) from KMWL Reporting Station
Haze Haze  
Wind Chill: 63°   Ceiling: Unl
Heat Index: 63°   Visibility: 4mi
Dew Point: 58°   Wind: 7mph
Humidity: 84%   Direction: 140°SE
Pressure: 30.15"   Gusts: NA
Location:  32.6°N, 98.22°W
Report Text: KMWL 221453Z AUTO 14006KT 4SM HZ CLR 17/14 A3015 RMK AO2 SLP200 T01720144 53018
Loading
Personal Weather Stations






























Interactive Weather Map
Tropical Storm Tracking
New forecast layout! Learn more

10-Day Weather Forecast

Advertisements
Track Severe Weather on mobile